Terminal Aerodrome Forecast
Issued by NWS Flagstaff, AZ

Home | Current Version | Previous Version | Text Only | Print | Product List | Glossary On
Versions: 1 2 3 4 5 6 7 8 9 10 11 12 13
359
FTUS45 KFGZ 061409 AAA
TAFINW
TAF AMD
KINW 061409Z 0614/0712 21010G20KT P6SM FEW120 SCT150 OVC250
     FM061700 23020G30KT P6SM SCT120 BKN150
     FM070100 23012G20KT P6SM SCT250
     FM070400 23011KT P6SM SCT250=

USA.gov is the U.S. government's official web portal to all federal, state and local government web resources and services.